CDT,Max TemperatureF,Mean TemperatureF,Min TemperatureF,Max Dew PointF,MeanDew PointF,Min DewpointF,Max Humidity, Mean Humidity, Min Humidity, Max Sea Level PressureIn, Mean Sea Level PressureIn, Min Sea Level PressureIn, Max VisibilityMiles, Mean VisibilityMiles, Min VisibilityMiles, Max Wind SpeedMPH, Mean Wind SpeedMPH, Max Gust SpeedMPH,PrecipitationIn, CloudCover, Events, WindDirDegrees
2012-10-1,75,60,46,48,40,30,82,51,20,29.96,29.92,29.88,10,10,7,28,10,36,0.00,0,,337
2012-10-2,73,58,42,43,37,30,81,49,29,29.98,29.93,29.86,10,10,4,12,7,16,0.00,0,,322
2012-10-3,78,58,37,41,35,32,87,47,18,29.93,29.88,29.82,10,10,2,21,6,29,0.00,0,,180
2012-10-4,60,50,39,41,33,28,76,55,36,30.29,30.14,29.89,10,10,9,25,17,36,0.00,2,Rain,309
2012-10-5,50,41,32,28,24,18,80,55,28,30.29,30.26,30.20,10,10,3,20,10,29,0.00,0,,299
2012-10-6,42,32,21,25,21,18,86,60,42,30.33,30.28,30.25,10,10,8,24,11,31,0.00,4,,316
2012-10-7,55,36,17,27,20,14,86,56,26,30.28,30.15,29.99,10,10,3,21,7,30,0.00,0,,241
2012-10-8,68,54,39,32,30,27,75,46,23,29.98,29.86,29.76,10,10,10,29,19,39,0.00,0,,215
2012-10-9,53,42,32,43,33,25,87,60,35,30.10,29.92,29.78,10,10,8,26,10,32,0.00,2,Rain,292
2012-10-10,60,43,26,28,24,19,86,52,22,30.21,30.11,30.01,10,10,9,18,11,22,0.00,0,,254
2012-10-11,57,45,33,32,29,21,65,48,38,30.36,30.11,29.98,10,10,10,22,17,30,0.00,0,,303
2012-10-12,59,42,26,43,23,14,76,50,19,30.39,30.28,30.05,10,10,9,23,10,28,0.00,3,,104
2012-10-13,75,64,53,64,58,45,100,83,61,29.99,29.77,29.62,10,9,3,23,12,28,0.11,7,Rain,189
2012-10-14,62,52,42,63,46,37,100,76,39,29.95,29.79,29.57,10,8,2,29,16,34,0.46,3,Rain,327
2012-10-15,69,51,33,46,40,32,93,68,35,30.00,29.91,29.78,10,10,9,13,6,18,0.00,0,,189
2012-10-16,77,62,46,50,46,43,93,63,29,29.77,29.53,29.41,10,10,5,16,9,21,0.00,0,,219
2012-10-17,62,54,46,52,41,32,94,59,39,29.52,29.42,29.30,10,10,4,36,16,46,0.02,5,Rain,271
2012-10-18,50,46,41,45,38,27,100,80,40,29.48,29.40,29.34,10,6,2,32,21,43,0.42,7,Rain,290
2012-10-19,46,44,41,43,41,39,100,92,87,29.79,29.66,29.48,10,8,2,23,19,32,0.07,8,Rain,314
2012-10-20,60,50,41,45,42,39,100,84,52,29.84,29.79,29.74,10,10,1,12,6,16,0.00,4,,188
2012-10-21,78,58,39,63,51,39,100,80,47,29.81,29.78,29.74,10,10,10,17,7,18,0.00,2,,154
2012-10-22,73,64,55,66,58,52,100,85,65,29.84,29.80,29.74,10,9,2,16,7,16,0.00,6,,53
2012-10-23,73,65,57,64,60,57,100,90,65,29.78,29.73,29.67,10,6,0,16,10,22,0.00,7,,217
2012-10-24,62,55,48,63,56,48,100,100,94,29.79,29.75,29.71,9,2,0,17,8,22,0.08,8,Fog-Rain,4
2012-10-25,46,40,33,46,36,28,100,87,70,30.29,29.96,29.60,10,7,1,32,21,41,0.96,8,Rain,331
2012-10-26,39,36,32,28,27,25,87,69,56,30.46,30.40,30.29,10,10,10,18,11,22,0.00,7,,317
2012-10-27,41,32,24,30,25,19,93,69,48,30.40,30.34,30.27,10,10,3,8,4,,0.00,3,,348
2012-10-28,48,39,30,30,29,27,93,73,46,30.33,30.28,30.23,10,10,3,13,5,16,0.00,4,,155
2012-10-29,53,43,33,32,29,27,87,61,38,30.27,30.21,30.15,10,10,10,20,10,25,0.00,5,,142
2012-10-30,48,38,28,34,29,25,93,69,43,30.16,30.10,30.04,10,10,9,12,4,,0.00,4,,32
2012-10-31,55,42,28,32,29,23,93,65,33,30.06,30.02,29.97,10,10,9,8,4,,0.00,1,,312